Time;durP1;ratioP1;P1;durP2;ratioP2;P2;SDS_P1;SDS_P2;PMS_P1;PMS_P2;Temp;Humidity;BMP_temperature;BMP_pressure;BME280_temperature;BME280_humidity;BME280_pressure;Samples;Min_cycle;Max_cycle;Signal;HPM_P1;HPM_P2
2022/09/15 00:01:20;;;;;;;1.25;0.60;;;;;;;15.63;74.05;100846.28;5057545;27;96827;-31
2022/09/15 00:03:46;;;;;;;4.25;0.63;;;;;;;15.56;74.32;100834.13;5057084;27;99392;-31
2022/09/15 00:06:11;;;;;;;3.15;0.70;;;;;;;15.56;74.44;100838.75;5057133;27;97515;-30
2022/09/15 00:08:37;;;;;;;1.20;0.40;;;;;;;15.53;74.39;100836.28;5038553;27;96532;-33
2022/09/15 00:11:14;;;;;;;1.90;0.77;;;;;;;15.50;74.71;100832.78;5057113;27;96853;-30
2022/09/15 00:13:39;;;;;;;1.92;0.55;;;;;;;15.49;74.70;100838.38;5038255;27;101350;-31
2022/09/15 00:16:06;;;;;;;1.65;0.60;;;;;;;15.47;74.58;100832.19;5038229;27;101153;-30
2022/09/15 00:18:31;;;;;;;0.50;0.38;;;;;;;15.44;74.68;100832.44;5057181;27;96636;-32
2022/09/15 00:20:57;;;;;;;0.40;0.22;;;;;;;15.44;74.63;100841.47;5038810;27;96759;-31
2022/09/15 00:23:22;;;;;;;0.63;0.47;;;;;;;15.44;74.91;100832.44;5056465;27;99364;-32
2022/09/15 00:25:50;;;;;;;0.50;0.40;;;;;;;15.43;75.02;100833.44;5056953;27;99120;-32
2022/09/15 00:28:18;;;;;;;1.50;0.40;;;;;;;15.42;74.80;100824.38;5038804;27;96668;-30
2022/09/15 00:30:46;;;;;;;3.90;0.50;;;;;;;15.41;74.60;100825.34;5038416;27;96905;-30
2022/09/15 00:33:13;;;;;;;0.47;0.47;;;;;;;15.40;74.64;100825.50;5037729;27;101614;-31
2022/09/15 00:35:39;;;;;;;1.02;0.50;;;;;;;15.39;74.95;100823.75;5038426;27;101065;-31
2022/09/15 00:38:06;;;;;;;0.68;0.52;;;;;;;15.35;74.74;100816.81;5056927;27;96580;-30
2022/09/15 00:40:32;;;;;;;1.95;0.47;;;;;;;15.33;74.88;100816.94;5038597;27;96968;-30
2022/09/15 00:42:58;;;;;;;1.77;0.68;;;;;;;15.31;74.59;100826.25;5037847;27;101268;-30
2022/09/15 00:45:23;;;;;;;1.70;0.77;;;;;;;15.28;74.64;100819.19;5056572;27;97759;-31
2022/09/15 00:47:49;;;;;;;0.60;0.50;;;;;;;15.26;74.70;100827.50;5056747;27;96683;-30
2022/09/15 00:50:17;;;;;;;0.47;0.47;;;;;;;15.22;74.69;100827.88;5057233;27;96814;-30
2022/09/15 00:52:50;;;;;;;1.08;0.70;;;;;;;15.21;75.07;100835.19;5037975;27;101836;-30
2022/09/15 00:55:21;;;;;;;1.77;0.43;;;;;;;15.19;75.07;100834.44;5037966;27;98960;-30
2022/09/15 00:57:57;;;;;;;2.10;0.88;;;;;;;15.19;75.05;100834.44;5037511;27;96779;-30
2022/09/15 01:00:26;;;;;;;0.43;0.43;;;;;;;15.17;74.74;100828.25;5056728;27;96511;-31
2022/09/15 01:02:53;;;;;;;1.30;0.70;;;;;;;15.16;75.18;100831.09;5055953;27;99717;-30
2022/09/15 01:05:22;;;;;;;1.08;0.63;;;;;;;15.14;75.26;100828.50;5037727;27;100543;-31
2022/09/15 01:07:55;;;;;;;1.55;0.55;;;;;;;15.15;75.08;100829.34;5037734;27;96750;-30
2022/09/15 01:10:32;;;;;;;4.20;0.95;;;;;;;15.13;75.28;100829.47;5038048;27;96732;-32
2022/09/15 01:13:04;;;;;;;2.60;0.80;;;;;;;15.12;75.39;100841.41;5055710;27;99353;-30
2022/09/15 01:15:36;;;;;;;;;;;;;;;15.12;75.88;100830.47;5038595;27;100850;-30
2022/09/15 01:18:17;;;;;;;0.70;0.55;;;;;;;15.13;75.39;100832.19;5056489;27;96606;-32
2022/09/15 01:21:18;;;;;;;1.13;0.75;;;;;;;15.15;75.79;100841.13;5037974;27;96785;-31
2022/09/15 01:24:06;;;;;;;1.13;0.80;;;;;;;15.14;75.44;100833.97;5055197;27;99331;-31
2022/09/15 01:26:53;;;;;;;1.85;0.93;;;;;;;15.19;75.26;100831.72;5037626;27;100418;-31
2022/09/15 01:29:39;;;;;;;3.80;1.23;;;;;;;15.20;75.45;100832.56;5055844;27;96520;-31
2022/09/15 01:35:12;;;;;;;3.15;2.17;;;;;;;15.22;75.15;100833.31;5056384;27;97028;-31
2022/09/15 01:37:44;;;;;;;3.65;1.60;;;;;;;15.24;74.73;100825.88;5037594;27;101184;-30
2022/09/15 01:40:12;;;;;;;7.10;1.88;;;;;;;15.26;74.33;100832.94;5037638;27;96790;-30
2022/09/15 01:42:39;;;;;;;2.30;1.35;;;;;;;15.28;74.21;100836.44;5055962;27;96815;-31
2022/09/15 01:45:19;;;;;;;6.65;1.60;;;;;;;15.27;74.38;100829.22;5055965;27;97530;-31
2022/09/15 01:47:51;;;;;;;5.07;1.70;;;;;;;15.24;74.41;100826.75;5055565;27;97519;-31
2022/09/15 01:50:28;;;;;;;3.97;1.50;;;;;;;15.23;74.35;100841.41;5036970;27;97226;-30
2022/09/15 01:52:58;;;;;;;2.28;1.33;;;;;;;15.21;74.32;100839.78;5055544;27;96688;-31
2022/09/15 01:55:37;;;;;;;3.63;1.42;;;;;;;15.16;74.58;100834.72;5037124;27;99171;-30
2022/09/15 01:58:03;;;;;;;3.53;1.75;;;;;;;15.15;74.65;100829.34;5036730;27;100743;-31
2022/09/15 02:00:34;;;;;;;3.97;1.70;;;;;;;15.11;74.59;100834.22;5037321;27;96597;-30
2022/09/15 02:03:04;;;;;;;2.45;1.65;;;;;;;15.10;74.80;100831.59;5037394;27;96821;-30
2022/09/15 02:05:39;;;;;;;2.17;1.42;;;;;;;15.09;74.77;100838.91;5036990;27;100913;-31
2022/09/15 02:08:11;;;;;;;2.95;1.30;;;;;;;15.11;74.65;100836.03;5055945;27;97794;-31
2022/09/15 02:10:40;;;;;;;2.95;1.63;;;;;;;15.11;74.48;100836.03;5036963;27;96725;-30
2022/09/15 02:13:17;;;;;;;3.42;1.75;;;;;;;15.11;74.46;100836.03;5036862;27;96820;-31
2022/09/15 02:15:51;;;;;;;2.75;1.42;;;;;;;15.14;74.84;100827.63;5036429;27;101089;-31
2022/09/15 02:18:28;;;;;;;2.15;1.17;;;;;;;15.14;74.59;100833.97;5015669;28;101047;-31
2022/09/15 02:21:02;;;;;;;1.08;0.70;;;;;;;15.16;74.36;100833.81;5012688;28;96637;-31
2022/09/15 02:23:36;;;;;;;1.30;0.82;;;;;;;15.20;74.21;100836.16;5013368;28;96719;-30
2022/09/15 02:26:08;;;;;;;1.02;0.77;;;;;;;15.24;74.33;100836.81;5014656;28;99370;-31
2022/09/15 02:28:37;;;;;;;1.95;1.02;;;;;;;15.24;74.16;100824.03;5014442;28;99410;-31
2022/09/15 02:31:05;;;;;;;0.80;0.75;;;;;;;15.30;73.92;100836.28;5013542;28;96682;-30
2022/09/15 02:33:38;;;;;;;2.05;1.00;;;;;;;15.34;74.17;100845.09;5015303;28;96844;-31
2022/09/15 02:36:05;;;;;;;3.47;0.80;;;;;;;15.37;73.79;100842.13;5013129;28;101253;-31
2022/09/15 02:38:37;;;;;;;1.42;0.90;;;;;;;15.39;73.77;100837.41;5012998;28;101753;-31
2022/09/15 02:41:04;;;;;;;2.15;0.85;;;;;;;15.40;73.83;100840.03;5013052;28;96638;-30
2022/09/15 02:43:30;;;;;;;4.00;0.85;;;;;;;15.41;73.84;100840.88;5014598;28;96769;-31
2022/09/15 02:45:56;;;;;;;5.93;0.80;;;;;;;15.42;73.69;100854.41;5012873;28;100864;-32
2022/09/15 02:48:21;;;;;;;3.58;0.82;;;;;;;15.44;73.71;100851.53;5014335;28;97900;-31
2022/09/15 02:50:46;;;;;;;0.93;0.77;;;;;;;15.45;73.87;100859.63;5014308;28;96626;-30
2022/09/15 02:53:12;;;;;;;1.77;0.75;;;;;;;15.44;73.76;100852.41;5013997;28;100835;-32
2022/09/15 02:55:38;;;;;;;1.48;0.80;;;;;;;15.44;73.89;100846.06;5014002;28;109331;-30
2022/09/15 02:58:04;;;;;;;1.65;0.90;;;;;;;15.45;73.91;100850.56;5014638;28;98263;-32
2022/09/15 03:00:29;;;;;;;1.50;0.93;;;;;;;15.43;74.13;100847.94;5014398;28;96531;-31
2022/09/15 03:02:55;;;;;;;2.10;0.70;;;;;;;15.41;74.16;100846.34;5012999;28;96943;-30
2022/09/15 03:05:28;;;;;;;2.28;0.95;;;;;;;15.39;74.65;100854.63;5012261;28;100939;-34
2022/09/15 03:07:54;;;;;;;2.10;0.80;;;;;;;15.36;74.71;100851.31;5012609;28;101097;-30
2022/09/15 03:10:20;;;;;;;1.25;0.70;;;;;;;15.36;74.48;100852.16;5013022;28;96582;-31
2022/09/15 03:12:51;;;;;;;0.77;0.63;;;;;;;15.34;74.74;100851.44;5014342;28;96829;-31
2022/09/15 03:15:20;;;;;;;1.08;0.75;;;;;;;15.33;74.62;100855.16;5012414;28;101218;-30
2022/09/15 03:17:46;;;;;;;1.05;0.60;;;;;;;15.29;74.86;100850.94;5039447;27;97459;-30
2022/09/15 03:20:15;;;;;;;1.23;0.75;;;;;;;15.29;75.09;100853.66;5036353;27;97284;-30
2022/09/15 03:22:41;;;;;;;3.10;0.90;;;;;;;15.27;75.05;100861.09;5036600;27;96861;-31
2022/09/15 03:25:06;;;;;;;1.35;0.80;;;;;;;15.29;75.17;100867.31;5035751;27;100799;-30
2022/09/15 03:27:33;;;;;;;2.40;0.82;;;;;;;15.26;74.88;100859.38;5054171;27;97813;-31
2022/09/15 03:29:59;;;;;;;1.75;0.82;;;;;;;15.26;75.20;100870.31;5035608;27;96615;-30
2022/09/15 03:32:24;;;;;;;3.78;0.80;;;;;;;15.27;75.31;100855.66;5057307;27;96680;-30
2022/09/15 03:34:49;;;;;;;3.33;0.93;;;;;;;15.26;75.28;100854.78;5057356;27;102948;-31
2022/09/15 03:37:15;;;;;;;1.13;0.52;;;;;;;15.26;75.37;100871.16;5057516;27;98732;-30
2022/09/15 03:39:40;;;;;;;3.08;0.95;;;;;;;15.24;75.73;100864.94;5039580;27;96562;-30
2022/09/15 03:42:06;;;;;;;0.82;0.75;;;;;;;15.25;75.66;100863.09;5057966;27;96684;-31
2022/09/15 03:44:31;;;;;;;2.50;0.82;;;;;;;15.22;75.73;100864.19;5057429;27;97952;-30
2022/09/15 03:46:57;;;;;;;2.00;0.80;;;;;;;15.21;75.54;100865.22;5058064;27;98145;-30
2022/09/15 03:49:23;;;;;;;2.20;0.70;;;;;;;15.21;75.51;100869.81;5057492;27;96614;-30
2022/09/15 03:51:49;;;;;;;1.63;0.80;;;;;;;15.21;75.85;100875.25;5039449;27;96932;-30
2022/09/15 03:54:14;;;;;;;1.77;0.85;;;;;;;15.20;75.88;100866.19;5056609;27;99302;-32
2022/09/15 03:56:39;;;;;;;0.63;0.55;;;;;;;15.19;75.82;100869.91;5056654;27;117348;-31
2022/09/15 03:59:05;;;;;;;1.88;0.80;;;;;;;15.17;76.13;100871.03;5057791;27;96683;-31
2022/09/15 04:01:31;;;;;;;1.13;0.47;;;;;;;15.15;76.26;100868.41;5057748;27;97102;-30
2022/09/15 04:03:57;;;;;;;1.65;0.52;;;;;;;15.13;76.07;100873.13;5057057;27;98880;-30
2022/09/15 04:06:23;;;;;;;1.70;0.68;;;;;;;15.12;76.23;100879.59;5038883;27;100730;-30
2022/09/15 04:08:50;;;;;;;3.55;0.98;;;;;;;15.10;76.62;100867.94;5039035;27;96668;-30
2022/09/15 04:11:17;;;;;;;1.50;0.77;;;;;;;15.07;76.18;100876.38;5039501;27;96855;-31
2022/09/15 04:13:43;;;;;;;2.72;0.90;;;;;;;15.09;76.26;100874.38;5038394;27;101366;-31
2022/09/15 04:16:11;;;;;;;0.75;0.65;;;;;;;15.10;76.19;100872.53;5057157;27;97778;-30
2022/09/15 04:18:36;;;;;;;2.55;0.95;;;;;;;15.12;76.26;100876.00;5038303;27;96487;-31
2022/09/15 04:21:22;;;;;;;1.42;0.90;;;;;;;15.13;76.26;100883.19;5056931;27;97841;-30
2022/09/15 04:23:47;;;;;;;1.88;0.82;;;;;;;15.11;76.34;100872.41;5056615;27;98124;-30
2022/09/15 04:26:30;;;;;;;2.67;1.02;;;;;;;15.13;76.70;100872.25;5056560;27;108208;-30
2022/09/15 04:28:56;;;;;;;2.35;0.80;;;;;;;15.13;76.17;100870.41;5057180;27;96644;-30
2022/09/15 04:31:21;;;;;;;2.33;0.80;;;;;;;15.13;76.34;100875.84;5038738;27;96878;-31
2022/09/15 04:33:47;;;;;;;1.95;1.00;;;;;;;15.15;76.45;100878.47;5038343;27;99646;-30
2022/09/15 04:36:18;;;;;;;2.72;0.73;;;;;;;15.13;76.56;100878.59;5057189;27;97895;-30
2022/09/15 04:38:44;;;;;;;1.42;0.80;;;;;;;15.13;76.37;100875.84;5038470;27;96516;-30
2022/09/15 04:41:11;;;;;;;5.25;0.70;;;;;;;15.13;76.54;100869.53;5038565;27;96830;-31
2022/09/15 04:43:36;;;;;;;1.27;0.68;;;;;;;15.12;76.45;100868.69;5037033;27;101385;-30
2022/09/15 04:46:02;;;;;;;1.95;0.90;;;;;;;15.15;76.77;100871.16;5056609;27;97313;-30
2022/09/15 04:48:27;;;;;;;2.08;1.00;;;;;;;15.16;76.71;100870.19;5056884;27;96504;-31
2022/09/15 04:50:53;;;;;;;1.23;0.80;;;;;;;15.15;76.92;100867.56;5056480;27;96703;-31
2022/09/15 04:53:19;;;;;;;2.50;1.02;;;;;;;15.13;76.86;100864.94;5037923;27;101148;-31
2022/09/15 04:55:44;;;;;;;1.83;1.00;;;;;;;15.13;76.69;100859.50;5056246;27;99232;-32
2022/09/15 04:58:29;;;;;;;1.20;0.82;;;;;;;15.19;77.15;100874.50;5056176;27;101861;-32
2022/09/15 05:00:54;;;;;;;2.13;0.63;;;;;;;15.17;76.73;100871.91;5057209;27;96805;-30
2022/09/15 05:03:19;;;;;;;1.10;0.70;;;;;;;15.17;77.17;100871.91;5037712;27;100979;-30
2022/09/15 05:05:46;;;;;;;3.45;1.15;;;;;;;15.19;76.56;100875.38;5055863;27;101969;-31
2022/09/15 05:08:11;;;;;;;4.50;1.02;;;;;;;15.20;76.78;100868.91;5055985;27;96521;-30
2022/09/15 05:10:37;;;;;;;1.77;0.95;;;;;;;15.23;76.82;100879.59;5056339;27;96835;-30
2022/09/15 05:13:02;;;;;;;2.40;1.10;;;;;;;15.24;76.48;100873.13;5055814;27;99898;-30
2022/09/15 05:15:27;;;;;;;1.70;0.80;;;;;;;15.25;76.23;100876.72;5056045;27;97833;-31
2022/09/15 05:17:52;;;;;;;3.97;1.27;;;;;;;15.26;76.12;100871.16;5056103;27;96795;-30
2022/09/15 05:20:18;;;;;;;3.83;1.00;;;;;;;15.29;76.03;100876.34;5055291;27;107999;-30
2022/09/15 05:22:44;;;;;;;2.38;0.80;;;;;;;15.32;75.95;100882.56;5055890;27;96750;-30
2022/09/15 05:25:10;;;;;;;4.38;0.98;;;;;;;15.29;75.99;100870.91;5055927;27;99001;-30
2022/09/15 05:27:35;;;;;;;1.00;0.57;;;;;;;15.32;75.88;100877.09;5056367;27;96730;-32
2022/09/15 05:30:00;;;;;;;0.55;0.45;;;;;;;15.30;75.89;100882.69;5056186;27;96831;-31
2022/09/15 05:32:26;;;;;;;2.28;0.65;;;;;;;15.26;75.90;100870.31;5055499;27;97474;-30
2022/09/15 05:34:51;;;;;;;2.00;0.98;;;;;;;15.26;75.98;100873.03;5055321;27;99202;-30
2022/09/15 05:37:17;;;;;;;1.00;0.45;;;;;;;15.25;75.53;100869.44;5056266;27;96611;-31
2022/09/15 05:39:42;;;;;;;1.15;0.70;;;;;;;15.27;76.04;100875.59;5056277;27;96750;-32
2022/09/15 05:42:07;;;;;;;1.98;0.70;;;;;;;15.23;76.13;100876.88;5054968;27;116353;-31
2022/09/15 05:44:33;;;;;;;1.80;0.82;;;;;;;15.25;76.39;100884.91;5055440;27;99182;-30
2022/09/15 05:46:59;;;;;;;2.25;0.95;;;;;;;15.21;76.02;100876.13;5037462;27;96806;-31
2022/09/15 05:49:24;;;;;;;2.55;0.82;;;;;;;15.20;76.60;100881.69;5055970;27;96780;-30
2022/09/15 05:51:49;;;;;;;1.63;0.73;;;;;;;15.21;76.52;100889.78;5055379;27;99253;-31
2022/09/15 05:54:15;;;;;;;1.27;0.75;;;;;;;15.21;76.22;100884.31;5054648;27;99200;-32
2022/09/15 05:56:40;;;;;;;2.00;0.95;;;;;;;15.21;76.27;100881.59;5054884;27;96581;-32
2022/09/15 05:59:05;;;;;;;0.80;0.55;;;;;;;15.25;76.16;100882.19;5055778;27;96872;-30
2022/09/15 06:01:31;;;;;;;0.95;0.60;;;;;;;15.24;76.35;100881.31;5053987;27;128570;-30
2022/09/15 06:03:57;;;;;;;0.95;0.77;;;;;;;15.24;76.17;100884.06;5054910;27;99406;-30
2022/09/15 06:06:24;;;;;;;1.20;0.85;;;;;;;15.31;76.18;100889.03;5055709;27;96595;-31
2022/09/15 06:08:54;;;;;;;5.30;0.95;;;;;;;15.32;76.15;100890.75;5037105;27;96857;-30
2022/09/15 06:11:21;;;;;;;2.05;0.75;;;;;;;15.31;76.05;100880.84;5055172;27;99248;-30
2022/09/15 06:13:47;;;;;;;3.25;0.93;;;;;;;15.33;76.07;100897.97;5055294;27;99325;-30
2022/09/15 06:16:18;;;;;;;4.68;0.60;;;;;;;15.33;76.21;100897.97;5055344;27;96660;-29
2022/09/15 06:18:44;;;;;;;2.72;0.82;;;;;;;15.32;76.05;100902.53;5054942;27;96769;-30
2022/09/15 06:21:35;;;;;;;3.35;0.73;;;;;;;15.36;76.55;100905.91;5036152;27;101139;-30
2022/09/15 06:24:05;;;;;;;1.10;0.63;;;;;;;15.33;75.90;100908.88;5048399;27;97301;-31
2022/09/15 06:26:32;;;;;;;3.63;0.75;;;;;;;15.34;75.92;100908.75;5036704;27;97661;-30
2022/09/15 06:28:59;;;;;;;2.03;1.00;;;;;;;15.34;76.13;100911.47;5035758;27;96996;-33
2022/09/15 06:31:26;;;;;;;3.22;1.10;;;;;;;15.34;76.37;100910.59;5035517;27;101363;-30
2022/09/15 06:33:54;;;;;;;2.13;0.80;;;;;;;15.34;76.02;100907.88;5036626;27;100986;-30
2022/09/15 06:36:21;;;;;;;6.70;0.68;;;;;;;15.39;76.13;100919.28;5036924;27;96699;-30
2022/09/15 06:38:47;;;;;;;1.60;0.75;;;;;;;15.37;76.20;100913.09;5037151;27;96846;-32
2022/09/15 06:41:13;;;;;;;4.93;1.10;;;;;;;15.39;76.06;100913.84;5054778;27;97953;-32
2022/09/15 06:43:39;;;;;;;2.47;0.50;;;;;;;15.43;75.77;100921.66;5036089;27;100536;-32
2022/09/15 06:46:06;;;;;;;0.77;0.40;;;;;;;15.47;75.74;100923.16;5054272;27;104506;-31
2022/09/15 06:48:32;;;;;;;0.35;0.30;;;;;;;15.45;75.89;100919.66;5036524;27;96829;-31
2022/09/15 06:50:58;;;;;;;0.90;0.60;;;;;;;15.50;75.96;100927.50;5052497;27;98889;-31
2022/09/15 06:53:23;;;;;;;4.00;0.65;;;;;;;15.53;75.75;100927.22;5053638;27;99182;-31
2022/09/15 06:55:49;;;;;;;1.30;0.63;;;;;;;15.56;75.84;100932.44;5054966;27;96748;-30
2022/09/15 06:58:15;;;;;;;3.10;0.93;;;;;;;15.64;75.87;100940.03;5054791;27;96829;-30
2022/09/15 07:00:41;;;;;;;3.83;0.55;;;;;;;15.65;75.72;100931.69;5036281;27;100970;-30
2022/09/15 07:03:06;;;;;;;3.60;0.77;;;;;;;15.70;75.54;100940.41;5054783;27;97848;-30
2022/09/15 07:05:31;;;;;;;1.10;0.55;;;;;;;15.73;75.27;100939.31;5054637;27;96676;-30
2022/09/15 07:07:57;;;;;;;2.13;0.75;;;;;;;15.80;75.21;100945.13;5058193;27;96850;-30
2022/09/15 07:10:22;;;;;;;0.77;0.52;;;;;;;15.83;74.98;100947.63;5057395;27;99076;-31
2022/09/15 07:12:47;;;;;;;1.30;0.70;;;;;;;15.85;74.66;100941.03;5057736;27;98123;-29
2022/09/15 07:15:13;;;;;;;2.20;0.90;;;;;;;15.90;74.34;100951.56;5057829;27;104460;-30
2022/09/15 07:17:38;;;;;;;1.88;0.70;;;;;;;15.90;74.59;100946.97;5058104;27;96749;-30
2022/09/15 07:20:04;;;;;;;2.83;0.82;;;;;;;15.95;74.52;100954.78;5057679;27;103975;-31
2022/09/15 07:22:29;;;;;;;0.70;0.60;;;;;;;15.98;74.84;100957.25;5057548;27;99180;-30
2022/09/15 07:24:54;;;;;;;2.65;0.82;;;;;;;16.03;74.79;100963.22;5057942;27;96782;-31
2022/09/15 07:27:23;;;;;;;6.97;1.00;;;;;;;16.08;74.35;100963.69;5057972;27;104973;-30
2022/09/15 07:29:49;;;;;;;2.92;0.55;;;;;;;16.08;74.39;100954.63;5057677;27;98021;-30
2022/09/15 07:32:14;;;;;;;0.47;0.38;;;;;;;16.08;73.76;100949.16;5057265;27;114146;-31
2022/09/15 07:34:39;;;;;;;1.40;0.80;;;;;;;16.16;74.07;100951.25;5057569;27;96741;-30
2022/09/15 07:37:05;;;;;;;3.80;0.60;;;;;;;16.20;74.37;100961.81;5057790;27;107551;-30
2022/09/15 07:39:32;;;;;;;2.25;0.45;;;;;;;16.28;74.11;100962.06;5057364;27;99884;-31
2022/09/15 07:41:57;;;;;;;5.32;1.00;;;;;;;16.32;73.89;100966.25;5038790;27;101148;-31
2022/09/15 07:44:23;;;;;;;0.98;0.45;;;;;;;16.33;73.62;100967.13;5057734;27;96625;-32
2022/09/15 07:46:48;;;;;;;2.85;1.25;;;;;;;16.35;73.62;100976.03;5057893;27;96806;-31
2022/09/15 07:49:13;;;;;;;3.03;0.60;;;;;;;16.32;73.35;100974.44;5057123;27;109677;-30
2022/09/15 07:51:38;;;;;;;3.88;0.65;;;;;;;16.27;73.57;101001.31;5057256;27;112186;-30
2022/09/15 07:54:04;;;;;;;1.60;0.60;;;;;;;16.12;74.23;100991.66;5057729;27;96653;-30
2022/09/15 07:56:29;;;;;;;0.52;0.25;;;;;;;16.09;74.59;101003.72;5057230;27;96632;-31
2022/09/15 07:58:55;;;;;;;3.83;0.47;;;;;;;16.03;75.20;101008.81;5038297;27;101071;-31
2022/09/15 08:01:21;;;;;;;4.40;0.60;;;;;;;16.00;75.45;101003.59;5036799;27;100956;-34
2022/09/15 08:03:48;;;;;;;2.28;0.70;;;;;;;16.03;75.31;101004.19;5056819;27;96663;-30
2022/09/15 08:06:15;;;;;;;1.17;0.38;;;;;;;16.05;75.02;101007.69;5038997;27;96887;-30
2022/09/15 08:08:42;;;;;;;3.55;0.43;;;;;;;16.11;75.47;101006.28;5037126;27;101011;-30
2022/09/15 08:11:10;;;;;;;2.83;0.60;;;;;;;16.21;75.43;101009.13;5038497;27;101406;-30
2022/09/15 08:13:35;;;;;;;3.00;0.43;;;;;;;16.24;75.39;101008.91;5038600;27;96809;-31
2022/09/15 08:16:06;;;;;;;3.15;0.30;;;;;;;16.44;74.51;101007.22;5055744;27;96817;-30
2022/09/15 08:18:32;;;;;;;5.03;0.40;;;;;;;16.59;74.40;101016.91;5035355;27;101035;-32
2022/09/15 08:20:58;;;;;;;3.30;0.52;;;;;;;16.64;74.26;101011.91;5056397;27;96668;-32
2022/09/15 08:23:23;;;;;;;2.38;0.63;;;;;;;16.70;74.02;101025.03;5054799;27;96751;-29
2022/09/15 08:25:50;;;;;;;3.63;0.32;;;;;;;16.75;74.13;101030.13;5056150;27;97365;-30
2022/09/15 08:28:16;;;;;;;0.65;0.43;;;;;;;16.80;74.15;101029.75;5056395;27;97981;-31
2022/09/15 08:30:41;;;;;;;1.50;0.32;;;;;;;16.87;74.14;101028.25;5056488;27;98600;-32
2022/09/15 08:33:06;;;;;;;3.97;0.35;;;;;;;16.97;73.74;101024.59;5057070;27;96521;-31
2022/09/15 08:35:33;;;;;;;1.17;0.30;;;;;;;17.05;72.58;101021.19;5056497;27;110578;-30
2022/09/15 08:37:58;;;;;;;1.15;0.45;;;;;;;17.05;72.34;101037.63;5038155;27;101244;-30
2022/09/15 08:40:33;;;;;;;3.67;0.43;;;;;;;17.00;71.45;101050.84;5056997;27;97784;-30
2022/09/15 08:43:07;;;;;;;3.83;0.40;;;;;;;16.91;71.89;101060.69;5038682;27;96745;-30
2022/09/15 08:45:45;;;;;;;3.03;0.68;;;;;;;16.83;71.24;101059.59;5038620;27;96728;-30
2022/09/15 08:48:14;;;;;;;0.47;0.25;;;;;;;16.78;70.85;101065.44;5037756;27;100186;-30
2022/09/15 08:50:44;;;;;;;2.22;0.40;;;;;;;16.75;70.20;101077.50;5037761;27;101005;-29
2022/09/15 08:53:22;;;;;;;2.92;0.50;;;;;;;16.74;69.61;101072.16;5038390;27;96875;-30
2022/09/15 08:55:47;;;;;;;2.45;0.63;;;;;;;16.75;69.94;101069.28;5056615;27;96636;-30
2022/09/15 08:58:16;;;;;;;0.60;0.30;;;;;;;16.76;69.23;101067.44;5056372;27;98017;-30
2022/09/15 09:00:44;;;;;;;1.17;0.30;;;;;;;16.83;69.57;101068.69;5037960;27;100875;-30
2022/09/15 09:03:36;;;;;;;1.45;0.43;;;;;;;17.01;68.75;101073.59;5037802;27;97739;-30
2022/09/15 09:06:13;;;;;;;0.75;0.10;;;;;;;17.07;68.11;101073.94;5057114;27;96551;-30
2022/09/15 09:08:55;;;;;;;1.27;0.40;;;;;;;17.13;67.99;101072.53;5056107;27;98831;-30
2022/09/15 09:11:53;;;;;;;1.63;0.65;;;;;;;17.18;66.53;101076.63;5056008;27;98867;-30
2022/09/15 09:14:35;;;;;;;0.82;0.30;;;;;;;17.23;67.00;101078.94;5055852;27;96693;-29
2022/09/15 09:17:03;;;;;;;;;;;;;;;17.23;65.45;101076.22;5037960;27;97212;-30
2022/09/15 09:19:51;;;;;;;1.05;0.40;;;;;;;17.29;65.63;101077.56;5056285;27;97941;-30
2022/09/15 09:22:22;;;;;;;0.40;0.30;;;;;;;17.31;64.34;101068.22;5055813;27;99152;-30
2022/09/15 09:24:55;;;;;;;0.47;0.40;;;;;;;17.34;65.23;101067.94;5037872;27;96823;-30
2022/09/15 09:27:25;;;;;;;1.95;0.13;;;;;;;17.37;64.36;101059.47;5037916;27;96868;-30
2022/09/15 09:29:59;;;;;;;1.38;0.10;;;;;;;17.39;64.51;101062.94;5037503;27;100887;-30
2022/09/15 09:32:31;;;;;;;2.08;0.20;;;;;;;17.47;64.71;101066.88;5037851;27;99876;-32
2022/09/15 09:34:59;;;;;;;0.45;0.20;;;;;;;17.52;64.50;101070.97;5056379;27;96703;-30
2022/09/15 09:37:24;;;;;;;4.75;0.32;;;;;;;17.58;64.05;101066.81;5054856;27;96879;-31
2022/09/15 09:39:50;;;;;;;3.83;0.32;;;;;;;17.67;64.95;101059.66;5055295;27;98369;-29
2022/09/15 09:42:17;;;;;;;1.65;0.28;;;;;;;17.76;65.04;101054.25;5055419;27;99197;-29
2022/09/15 09:44:43;;;;;;;1.45;0.38;;;;;;;17.82;64.29;101064.69;5037331;27;96732;-30
2022/09/15 09:47:09;;;;;;;4.90;0.70;;;;;;;17.89;63.85;101056.78;5037456;27;96864;-30
2022/09/15 09:49:41;;;;;;;1.77;0.50;;;;;;;18.05;63.27;101059.03;5055542;27;97968;-30
2022/09/15 09:52:06;;;;;;;2.08;0.40;;;;;;;18.11;62.59;101063.06;5037151;27;100969;-30
2022/09/15 09:54:34;;;;;;;0.73;0.47;;;;;;;18.18;62.53;101061.53;5055955;27;96663;-30
2022/09/15 09:57:11;;;;;;;1.35;0.30;;;;;;;18.20;62.38;101065.84;5037732;27;96849;-31
2022/09/15 09:59:42;;;;;;;0.68;0.30;;;;;;;18.36;61.90;101062.59;5055543;27;97495;-29
2022/09/15 10:02:26;;;;;;;1.53;0.50;;;;;;;18.80;60.89;101067.78;5036913;27;100799;-29
2022/09/15 10:05:17;;;;;;;3.15;0.50;;;;;;;19.55;57.46;101062.56;5055282;27;96522;-29
2022/09/15 10:07:42;;;;;;;2.03;0.33;;;;;;;19.96;55.29;101061.31;5037049;27;96855;-30
2022/09/15 10:10:18;;;;;;;1.85;0.32;;;;;;;20.40;54.41;101056.03;5055401;27;97971;-30
2022/09/15 10:12:44;;;;;;;2.25;0.60;;;;;;;20.84;55.58;101052.59;5036506;27;100918;-30
2022/09/15 10:15:22;;;;;;;1.55;0.32;;;;;;;21.05;55.40;101057.81;5055565;27;96626;-29
2022/09/15 10:17:49;;;;;;;3.75;0.32;;;;;;;20.94;54.75;101045.13;5036834;27;96896;-30
2022/09/15 10:20:45;;;;;;;3.80;0.70;;;;;;;20.77;53.04;101041.34;5036427;27;100937;-29
2022/09/15 10:23:17;;;;;;;0.32;0.17;;;;;;;20.49;51.34;101046.00;5055546;27;98025;-30
2022/09/15 10:25:43;;;;;;;1.17;0.35;;;;;;;20.21;55.01;101043.22;5055532;27;96494;-29
2022/09/15 10:28:16;;;;;;;2.20;0.88;;;;;;;20.17;54.96;101055.59;5037003;27;96814;-29
2022/09/15 10:31:09;;;;;;;0.50;0.22;;;;;;;20.06;53.08;101053.00;5036131;27;101704;-29
2022/09/15 10:33:43;;;;;;;0.95;0.40;;;;;;;20.03;53.96;101050.56;5036644;27;101177;-30
2022/09/15 10:36:15;;;;;;;2.20;0.57;;;;;;;20.02;53.13;101049.72;5055175;27;96637;-29
2022/09/15 10:38:44;;;;;;;0.98;0.25;;;;;;;20.05;51.65;101049.41;5036880;27;96824;-29
2022/09/15 10:41:19;;;;;;;2.92;0.30;;;;;;;19.99;50.75;101049.13;5035563;27;101274;-29
2022/09/15 10:43:56;;;;;;;1.67;0.20;;;;;;;20.15;52.68;101046.59;5054744;27;97985;-30
2022/09/15 10:46:43;;;;;;;1.17;0.50;;;;;;;20.43;50.84;101050.22;5054971;27;96629;-30
2022/09/15 10:49:23;;;;;;;0.22;0.15;;;;;;;20.56;46.73;101044.38;5037233;27;96879;-30
2022/09/15 10:52:30;;;;;;;2.10;0.45;;;;;;;20.43;48.48;101052.13;5054904;27;98026;-30
2022/09/15 10:55:22;;;;;;;0.28;0.20;;;;;;;20.38;50.53;101047.09;5053899;27;97796;-29
2022/09/15 10:58:21;;;;;;;1.40;0.52;;;;;;;20.42;49.17;101053.13;5036067;27;96705;-29
2022/09/15 11:00:58;;;;;;;0.40;0.30;;;;;;;20.54;50.20;101058.25;5055040;27;96808;-29
2022/09/15 11:03:39;;;;;;;0.52;0.30;;;;;;;20.39;47.12;101056.19;5036096;27;100998;-30
2022/09/15 11:06:13;;;;;;;0.93;0.25;;;;;;;20.28;48.56;101052.59;5035935;27;100764;-30
2022/09/15 11:09:01;;;;;;;0.47;0.30;;;;;;;20.28;49.62;101060.84;5036463;27;96863;-29
2022/09/15 11:11:43;;;;;;;0.22;0.20;;;;;;;20.22;48.70;101064.25;5036382;27;96862;-29
2022/09/15 11:14:29;;;;;;;0.95;0.20;;;;;;;20.21;49.30;101069.88;5036118;27;101247;-32
2022/09/15 11:17:17;;;;;;;3.00;0.82;;;;;;;20.10;49.17;101060.81;5036038;27;100866;-30
2022/09/15 11:19:51;;;;;;;0.73;0.17;;;;;;;20.09;50.00;101071.97;5036488;27;96659;-29
2022/09/15 11:22:21;;;;;;;3.05;0.45;;;;;;;20.16;47.14;101070.34;5036268;27;96724;-29
2022/09/15 11:24:52;;;;;;;2.28;0.40;;;;;;;20.18;47.57;101068.31;5053176;27;99181;-29
2022/09/15 11:27:33;;;;;;;0.47;0.22;;;;;;;20.44;46.09;101070.34;5054377;27;97487;-29
2022/09/15 11:30:14;;;;;;;4.30;0.70;;;;;;;20.29;46.79;101068.13;5036088;27;96654;-30
2022/09/15 11:32:45;;;;;;;2.08;0.47;;;;;;;20.11;48.65;101080.94;5054443;27;96686;-29
2022/09/15 11:35:32;;;;;;;5.47;0.75;;;;;;;19.90;49.52;101082.03;5053926;27;97567;-29
2022/09/15 11:38:17;;;;;;;1.85;0.38;;;;;;;19.73;48.21;101075.44;5054410;27;97830;-29
2022/09/15 11:41:07;;;;;;;0.50;0.30;;;;;;;19.59;50.31;101078.56;5054431;27;96529;-29